Nearby METAR Reports

 

KCPC - Whiteville, North Carolina, USA
Distance from station: NNE 17mi, 28km
Updated: 01/26/2022 4:15am
Clear
Clear
 Wind from NNE
Wind: NNE 6 mph , 9 km/h
Temperature: 39°F , 4°C
Wind Chill: 35°F , 2°C
Dew Point: 37°F , 3°C
Humidity: 93%
Barometer: 30.11 inHg , 1019.6 hPa
Clouds: Clear
Visibility: 10 miles , 16 km
2022/01/26 09:15 KCPC 260915Z AUTO 02005KT 10SM CLR 04/03 A3011 RMK AO2 T00440025
KCRE - North Myrtle Bea, South Carolina, USA
Distance from station: SSE 19mi, 31km
Updated: 01/26/2022 3:53am
Clear
Clear
 Wind from NW
Wind: NW 5 mph , 7 km/h
Temperature: 43°F , 6°C
Wind Chill: 40°F , 4°C
Dew Point: 39°F , 4°C
Humidity: 87%
Barometer: 30.06 inHg , 1017.9 hPa
Clouds: Clear
Visibility: 10 miles , 16 km
2022/01/26 08:53 KCRE 260853Z AUTO 32004KT 10SM CLR 06/04 A3006 RMK AO1 SLP180 T00560044 53004
 
KHYW - Conway-Horry Cty, South Carolina, USA
Distance from station: SW 22mi, 35km
Updated: 01/26/2022 4:15am
Clear
Clear
 Wind from calm
Wind: Calm
Temperature: 32°F , 0°C
Dew Point: 32°F , 0°C
Humidity: 100%
Barometer: 30.08 inHg , 1018.6 hPa
Clouds: Clear
Visibility: 10 miles , 16 km
2022/01/26 09:15 KHYW 260915Z AUTO 00000KT 10SM CLR 00/00 A3008 RMK AO2
KMAO - Marion, South Carolina, USA
Distance from station: WNW 28mi, 45km
Updated: 01/26/2022 4:15am
Clear
Clear
 Wind from NNE
Wind: NNE 6 mph , 9 km/h
Temperature: 37°F , 3°C
Wind Chill: 32°F , 0°C
Dew Point: 37°F , 3°C
Humidity: 100%
Barometer: 30.10 inHg , 1019.3 hPa
Clouds: Clear
Visibility: 10 miles , 16 km
2022/01/26 09:15 KMAO 260915Z AUTO 02005KT 10SM CLR 03/03 A3010 RMK AO2
 
KMYR - Myrtle Beach, South Carolina, USA
Distance from station: S 28mi, 45km
Updated: 01/26/2022 3:56am
Clear
Clear
 Wind from NNW
Wind: NNW 5 mph , 7 km/h
Temperature: 43°F , 6°C
Wind Chill: 40°F , 4°C
Dew Point: 39°F , 4°C
Humidity: 87%
Barometer: 30.07 inHg , 1018.3 hPa
Clouds: Clear
Visibility: 10 miles , 16 km
2022/01/26 08:56 KMYR 260856Z AUTO 34004KT 10SM CLR 06/04 A3007 RMK AO2 SLP182 T00610044 53002
KLBT - Lumberton, North Carolina, USA
Distance from station: NNW 39mi, 62km
Updated: 03/28/2019 9:55am
NOT Current

 
2019/03/28 13:55 KLBT 281355Z MKT MSM M M M M A0000 M M RMK TEST
 
KSUT - Southport, North Carolina, USA
Distance from station: E 46mi, 74km
Updated: 01/26/2022 4:15am
Clear
Clear
 Wind from N
Wind: N 6 mph , 9 km/h
Temperature: 43°F , 6°C
Wind Chill: 39°F , 4°C
Dew Point: 39°F , 4°C
Humidity: 87%
Barometer: 30.08 inHg , 1018.6 hPa
Clouds: Clear
Visibility: 10 miles , 16 km
2022/01/26 09:15 KSUT 260915Z AUTO 36005KT 10SM CLR 06/04 A3008 RMK AO2 T00560043
KFLO - Florence, South Carolina, USA
Distance from station: W 50mi, 81km
Updated: 01/26/2022 3:53am
Clear
Clear
 Wind from NNE
Wind: NNE 7 mph , 11 km/h
Temperature: 39°F , 4°C
Wind Chill: 34°F , 1°C
Dew Point: 34°F , 1°C
Humidity: 81%
Barometer: 30.09 inHg , 1019 hPa
Clouds: Clear
Visibility: 10 miles , 16 km
2022/01/26 08:53 KFLO 260853Z AUTO 03006KT 10SM CLR 04/01 A3009 RMK AO2 SLP189 T00440011 53014